sensor_id;sensor_type;location;lat;lon;timestamp;temperature;humidity
15906;DHT22;8051;50.820;4.884;2023-07-20T00:00:21;15.20;99.90
15906;DHT22;8051;50.820;4.884;2023-07-20T00:02:50;15.20;99.90
15906;DHT22;8051;50.820;4.884;2023-07-20T00:05:18;15.20;99.90
15906;DHT22;8051;50.820;4.884;2023-07-20T00:07:47;15.20;99.90
15906;DHT22;8051;50.820;4.884;2023-07-20T00:10:17;15.20;99.90
15906;DHT22;8051;50.820;4.884;2023-07-20T00:12:45;15.20;99.90
15906;DHT22;8051;50.820;4.884;2023-07-20T00:15:13;15.20;99.90
15906;DHT22;8051;50.820;4.884;2023-07-20T00:17:42;15.20;99.90
15906;DHT22;8051;50.820;4.884;2023-07-20T00:20:11;15.20;99.90
15906;DHT22;8051;50.820;4.884;2023-07-20T00:22:38;15.20;99.90
15906;DHT22;8051;50.820;4.884;2023-07-20T00:25:07;15.20;99.90
15906;DHT22;8051;50.820;4.884;2023-07-20T00:27:35;15.20;99.90
15906;DHT22;8051;50.820;4.884;2023-07-20T00:30:04;15.20;99.90
15906;DHT22;8051;50.820;4.884;2023-07-20T00:32:32;15.20;99.90
15906;DHT22;8051;50.820;4.884;2023-07-20T00:35:01;15.30;99.90
15906;DHT22;8051;50.820;4.884;2023-07-20T00:37:28;15.30;99.90
15906;DHT22;8051;50.820;4.884;2023-07-20T00:39:56;15.40;99.90
15906;DHT22;8051;50.820;4.884;2023-07-20T00:42:23;15.40;99.90
15906;DHT22;8051;50.820;4.884;2023-07-20T00:44:51;15.40;99.90
15906;DHT22;8051;50.820;4.884;2023-07-20T00:47:18;15.30;99.90
15906;DHT22;8051;50.820;4.884;2023-07-20T00:49:46;15.40;99.90
15906;DHT22;8051;50.820;4.884;2023-07-20T00:52:15;15.40;99.90
15906;DHT22;8051;50.820;4.884;2023-07-20T00:54:43;15.30;99.90
15906;DHT22;8051;50.820;4.884;2023-07-20T00:57:13;15.30;99.90
15906;DHT22;8051;50.820;4.884;2023-07-20T00:59:41;15.30;99.90
15906;DHT22;8051;50.820;4.884;2023-07-20T01:02:09;15.30;99.90
15906;DHT22;8051;50.820;4.884;2023-07-20T01:04:37;15.20;99.90
15906;DHT22;8051;50.820;4.884;2023-07-20T01:07:12;15.20;99.90
15906;DHT22;8051;50.820;4.884;2023-07-20T01:09:47;15.20;99.90
15906;DHT22;8051;50.820;4.884;2023-07-20T01:12:21;15.20;99.90
15906;DHT22;8051;50.820;4.884;2023-07-20T01:14:50;15.20;99.90
15906;DHT22;8051;50.820;4.884;2023-07-20T01:17:18;15.30;99.90
15906;DHT22;8051;50.820;4.884;2023-07-20T01:19:45;15.30;99.90
15906;DHT22;8051;50.820;4.884;2023-07-20T01:22:26;15.30;99.90
15906;DHT22;8051;50.820;4.884;2023-07-20T01:25:15;15.30;99.90
15906;DHT22;8051;50.820;4.884;2023-07-20T01:28:02;15.20;99.90
15906;DHT22;8051;50.820;4.884;2023-07-20T01:30:46;15.20;99.90
15906;DHT22;8051;50.820;4.884;2023-07-20T01:33:20;15.20;99.90
15906;DHT22;8051;50.820;4.884;2023-07-20T01:35:53;15.10;99.90
15906;DHT22;8051;50.820;4.884;2023-07-20T01:38:21;15.10;99.90
15906;DHT22;8051;50.820;4.884;2023-07-20T01:40:51;15.10;99.90
15906;DHT22;8051;50.820;4.884;2023-07-20T01:43:19;15.10;99.90
15906;DHT22;8051;50.820;4.884;2023-07-20T01:45:46;15.10;99.90
15906;DHT22;8051;50.820;4.884;2023-07-20T01:48:14;15.00;99.90
15906;DHT22;8051;50.820;4.884;2023-07-20T01:50:43;15.00;99.90
15906;DHT22;8051;50.820;4.884;2023-07-20T01:53:11;14.90;99.90
15906;DHT22;8051;50.820;4.884;2023-07-20T01:55:38;14.90;99.90
15906;DHT22;8051;50.820;4.884;2023-07-20T01:58:05;14.80;99.90
15906;DHT22;8051;50.820;4.884;2023-07-20T02:00:33;14.80;99.90
15906;DHT22;8051;50.820;4.884;2023-07-20T02:03:00;14.80;99.90
15906;DHT22;8051;50.820;4.884;2023-07-20T02:05:28;14.90;99.90
15906;DHT22;8051;50.820;4.884;2023-07-20T02:07:57;14.90;99.90
15906;DHT22;8051;50.820;4.884;2023-07-20T02:10:24;14.90;99.90
15906;DHT22;8051;50.820;4.884;2023-07-20T02:12:52;15.00;99.90
15906;DHT22;8051;50.820;4.884;2023-07-20T02:15:19;15.00;99.90
15906;DHT22;8051;50.820;4.884;2023-07-20T02:17:47;15.00;99.90
15906;DHT22;8051;50.820;4.884;2023-07-20T02:20:14;14.90;99.90
15906;DHT22;8051;50.820;4.884;2023-07-20T02:22:42;14.90;99.90
15906;DHT22;8051;50.820;4.884;2023-07-20T02:25:11;14.90;99.90
15906;DHT22;8051;50.820;4.884;2023-07-20T02:27:39;14.80;99.90
15906;DHT22;8051;50.820;4.884;2023-07-20T02:30:07;14.70;99.90
15906;DHT22;8051;50.820;4.884;2023-07-20T02:32:36;14.60;99.90
15906;DHT22;8051;50.820;4.884;2023-07-20T02:35:05;14.50;99.90
15906;DHT22;8051;50.820;4.884;2023-07-20T02:37:33;14.50;99.90
15906;DHT22;8051;50.820;4.884;2023-07-20T02:40:00;14.60;99.90
15906;DHT22;8051;50.820;4.884;2023-07-20T02:42:31;14.60;99.90
15906;DHT22;8051;50.820;4.884;2023-07-20T02:44:59;14.60;99.90
15906;DHT22;8051;50.820;4.884;2023-07-20T02:47:26;14.60;99.90
15906;DHT22;8051;50.820;4.884;2023-07-20T02:49:53;14.70;99.90
15906;DHT22;8051;50.820;4.884;2023-07-20T02:52:21;14.70;99.90
15906;DHT22;8051;50.820;4.884;2023-07-20T02:54:49;14.60;99.90
15906;DHT22;8051;50.820;4.884;2023-07-20T02:57:16;14.60;99.90
15906;DHT22;8051;50.820;4.884;2023-07-20T02:59:45;14.60;99.90
15906;DHT22;8051;50.820;4.884;2023-07-20T03:02:13;14.60;99.90
15906;DHT22;8051;50.820;4.884;2023-07-20T03:04:40;14.60;99.90
15906;DHT22;8051;50.820;4.884;2023-07-20T03:07:08;14.70;99.90
15906;DHT22;8051;50.820;4.884;2023-07-20T03:09:35;14.70;99.90
15906;DHT22;8051;50.820;4.884;2023-07-20T03:12:03;14.80;99.90
15906;DHT22;8051;50.820;4.884;2023-07-20T03:14:31;14.90;99.90
15906;DHT22;8051;50.820;4.884;2023-07-20T03:17:00;14.90;99.90
15906;DHT22;8051;50.820;4.884;2023-07-20T03:19:28;14.90;99.90
15906;DHT22;8051;50.820;4.884;2023-07-20T03:21:55;14.90;99.90
15906;DHT22;8051;50.820;4.884;2023-07-20T03:24:23;14.80;99.90
15906;DHT22;8051;50.820;4.884;2023-07-20T03:26:50;14.80;99.90
15906;DHT22;8051;50.820;4.884;2023-07-20T03:29:18;14.80;99.90
15906;DHT22;8051;50.820;4.884;2023-07-20T03:31:45;14.70;99.90
15906;DHT22;8051;50.820;4.884;2023-07-20T03:34:15;14.70;99.90
15906;DHT22;8051;50.820;4.884;2023-07-20T03:36:42;14.60;99.90
15906;DHT22;8051;50.820;4.884;2023-07-20T03:39:10;14.60;99.90
15906;DHT22;8051;50.820;4.884;2023-07-20T03:41:37;14.70;99.90
15906;DHT22;8051;50.820;4.884;2023-07-20T03:44:05;14.70;99.90
15906;DHT22;8051;50.820;4.884;2023-07-20T03:46:32;14.70;99.90
15906;DHT22;8051;50.820;4.884;2023-07-20T03:49:00;14.70;99.90
15906;DHT22;8051;50.820;4.884;2023-07-20T03:51:29;14.70;99.90
15906;DHT22;8051;50.820;4.884;2023-07-20T03:53:57;14.70;99.90
15906;DHT22;8051;50.820;4.884;2023-07-20T03:56:25;14.70;99.90
15906;DHT22;8051;50.820;4.884;2023-07-20T03:58:53;14.80;99.90
15906;DHT22;8051;50.820;4.884;2023-07-20T04:01:20;14.80;99.90
15906;DHT22;8051;50.820;4.884;2023-07-20T04:03:48;14.90;99.90
15906;DHT22;8051;50.820;4.884;2023-07-20T04:06:15;14.90;99.90
15906;DHT22;8051;50.820;4.884;2023-07-20T04:08:44;15.00;99.90
15906;DHT22;8051;50.820;4.884;2023-07-20T04:11:13;15.10;99.90
15906;DHT22;8051;50.820;4.884;2023-07-20T04:13:41;15.20;99.90
15906;DHT22;8051;50.820;4.884;2023-07-20T04:16:08;15.20;99.90
15906;DHT22;8051;50.820;4.884;2023-07-20T04:18:36;15.20;99.90
15906;DHT22;8051;50.820;4.884;2023-07-20T04:21:03;15.20;99.90
15906;DHT22;8051;50.820;4.884;2023-07-20T04:23:31;15.20;99.90
15906;DHT22;8051;50.820;4.884;2023-07-20T04:26:00;15.20;99.90
15906;DHT22;8051;50.820;4.884;2023-07-20T04:28:27;15.20;99.90
15906;DHT22;8051;50.820;4.884;2023-07-20T04:30:55;15.30;99.90
15906;DHT22;8051;50.820;4.884;2023-07-20T04:33:22;15.40;99.90
15906;DHT22;8051;50.820;4.884;2023-07-20T04:35:51;15.50;99.90
15906;DHT22;8051;50.820;4.884;2023-07-20T04:38:19;15.50;99.90
15906;DHT22;8051;50.820;4.884;2023-07-20T04:40:48;15.50;99.90
15906;DHT22;8051;50.820;4.884;2023-07-20T04:43:18;15.50;99.90
15906;DHT22;8051;50.820;4.884;2023-07-20T04:45:45;15.50;99.90
15906;DHT22;8051;50.820;4.884;2023-07-20T04:48:14;15.60;99.90
15906;DHT22;8051;50.820;4.884;2023-07-20T04:50:44;15.60;99.90
15906;DHT22;8051;50.820;4.884;2023-07-20T04:53:12;15.70;99.90
15906;DHT22;8051;50.820;4.884;2023-07-20T04:55:40;15.80;99.90
15906;DHT22;8051;50.820;4.884;2023-07-20T04:58:08;15.90;99.90
15906;DHT22;8051;50.820;4.884;2023-07-20T05:00:38;16.00;99.90
15906;DHT22;8051;50.820;4.884;2023-07-20T05:03:06;15.90;99.90
15906;DHT22;8051;50.820;4.884;2023-07-20T05:05:33;16.10;99.90
15906;DHT22;8051;50.820;4.884;2023-07-20T05:08:01;16.20;99.90
15906;DHT22;8051;50.820;4.884;2023-07-20T05:10:28;16.20;99.90
15906;DHT22;8051;50.820;4.884;2023-07-20T05:12:55;16.20;99.90
15906;DHT22;8051;50.820;4.884;2023-07-20T05:15:23;16.30;99.90
15906;DHT22;8051;50.820;4.884;2023-07-20T05:17:52;16.30;99.90
15906;DHT22;8051;50.820;4.884;2023-07-20T05:20:19;16.30;99.90
15906;DHT22;8051;50.820;4.884;2023-07-20T05:22:47;16.30;99.90
15906;DHT22;8051;50.820;4.884;2023-07-20T05:25:15;16.30;99.90
15906;DHT22;8051;50.820;4.884;2023-07-20T05:27:44;16.30;99.90
15906;DHT22;8051;50.820;4.884;2023-07-20T05:30:12;16.50;99.90
15906;DHT22;8051;50.820;4.884;2023-07-20T05:32:39;16.50;99.90
15906;DHT22;8051;50.820;4.884;2023-07-20T05:35:09;16.50;99.90
15906;DHT22;8051;50.820;4.884;2023-07-20T05:37:37;16.60;99.90
15906;DHT22;8051;50.820;4.884;2023-07-20T05:40:06;16.60;99.90
15906;DHT22;8051;50.820;4.884;2023-07-20T05:42:36;16.60;99.90
15906;DHT22;8051;50.820;4.884;2023-07-20T05:45:04;16.60;99.90
15906;DHT22;8051;50.820;4.884;2023-07-20T05:47:32;16.50;99.90
15906;DHT22;8051;50.820;4.884;2023-07-20T05:50:00;16.50;99.90
15906;DHT22;8051;50.820;4.884;2023-07-20T05:52:29;16.60;99.90
15906;DHT22;8051;50.820;4.884;2023-07-20T05:54:56;16.70;99.90
15906;DHT22;8051;50.820;4.884;2023-07-20T05:57:24;16.80;99.90
15906;DHT22;8051;50.820;4.884;2023-07-20T05:59:51;17.00;99.90
15906;DHT22;8051;50.820;4.884;2023-07-20T06:02:19;17.00;99.90
15906;DHT22;8051;50.820;4.884;2023-07-20T06:04:47;16.80;99.90
15906;DHT22;8051;50.820;4.884;2023-07-20T06:07:15;16.80;99.90
15906;DHT22;8051;50.820;4.884;2023-07-20T06:09:44;16.80;99.90
15906;DHT22;8051;50.820;4.884;2023-07-20T06:12:12;16.70;99.90
15906;DHT22;8051;50.820;4.884;2023-07-20T06:14:39;16.70;99.90
15906;DHT22;8051;50.820;4.884;2023-07-20T06:17:07;16.70;99.90
15906;DHT22;8051;50.820;4.884;2023-07-20T06:19:35;16.70;99.90
15906;DHT22;8051;50.820;4.884;2023-07-20T06:22:03;16.70;99.90
15906;DHT22;8051;50.820;4.884;2023-07-20T06:24:30;16.70;99.90
15906;DHT22;8051;50.820;4.884;2023-07-20T06:26:59;16.70;99.90
15906;DHT22;8051;50.820;4.884;2023-07-20T06:29:27;16.90;99.90
15906;DHT22;8051;50.820;4.884;2023-07-20T06:31:54;17.00;99.90
15906;DHT22;8051;50.820;4.884;2023-07-20T06:34:21;17.10;99.90
15906;DHT22;8051;50.820;4.884;2023-07-20T06:36:49;17.20;99.90
15906;DHT22;8051;50.820;4.884;2023-07-20T06:39:16;17.30;99.90
15906;DHT22;8051;50.820;4.884;2023-07-20T06:41:44;17.30;99.90
15906;DHT22;8051;50.820;4.884;2023-07-20T06:44:12;17.40;99.90
15906;DHT22;8051;50.820;4.884;2023-07-20T06:46:40;17.70;99.90
15906;DHT22;8051;50.820;4.884;2023-07-20T06:49:08;17.90;99.90
15906;DHT22;8051;50.820;4.884;2023-07-20T06:51:35;18.20;99.90
15906;DHT22;8051;50.820;4.884;2023-07-20T06:54:03;18.40;99.90
15906;DHT22;8051;50.820;4.884;2023-07-20T06:56:31;18.40;99.90
15906;DHT22;8051;50.820;4.884;2023-07-20T06:58:58;18.50;99.90
15906;DHT22;8051;50.820;4.884;2023-07-20T07:01:27;18.80;99.90
15906;DHT22;8051;50.820;4.884;2023-07-20T07:03:55;18.80;99.90
15906;DHT22;8051;50.820;4.884;2023-07-20T07:06:22;18.80;99.90
15906;DHT22;8051;50.820;4.884;2023-07-20T07:08:50;18.80;99.90
15906;DHT22;8051;50.820;4.884;2023-07-20T07:11:17;18.90;99.90
15906;DHT22;8051;50.820;4.884;2023-07-20T07:13:44;18.80;99.90
15906;DHT22;8051;50.820;4.884;2023-07-20T07:16:15;18.80;99.90
15906;DHT22;8051;50.820;4.884;2023-07-20T07:18:46;18.80;99.90
15906;DHT22;8051;50.820;4.884;2023-07-20T07:21:13;18.80;99.90
15906;DHT22;8051;50.820;4.884;2023-07-20T07:23:41;18.80;99.90
15906;DHT22;8051;50.820;4.884;2023-07-20T07:26:09;18.80;99.90
15906;DHT22;8051;50.820;4.884;2023-07-20T07:28:36;18.60;99.90
15906;DHT22;8051;50.820;4.884;2023-07-20T07:31:05;18.60;99.90
15906;DHT22;8051;50.820;4.884;2023-07-20T07:33:32;18.70;99.90
15906;DHT22;8051;50.820;4.884;2023-07-20T07:36:01;18.90;99.90
15906;DHT22;8051;50.820;4.884;2023-07-20T07:38:29;19.00;99.90
15906;DHT22;8051;50.820;4.884;2023-07-20T07:40:57;19.30;99.90
15906;DHT22;8051;50.820;4.884;2023-07-20T07:43:24;19.30;99.90
15906;DHT22;8051;50.820;4.884;2023-07-20T07:45:54;19.30;99.90
15906;DHT22;8051;50.820;4.884;2023-07-20T07:48:23;19.20;99.90
15906;DHT22;8051;50.820;4.884;2023-07-20T07:50:51;19.00;99.90
15906;DHT22;8051;50.820;4.884;2023-07-20T07:53:20;18.90;99.90
15906;DHT22;8051;50.820;4.884;2023-07-20T07:55:48;18.90;99.90
15906;DHT22;8051;50.820;4.884;2023-07-20T07:58:15;19.00;99.90
15906;DHT22;8051;50.820;4.884;2023-07-20T08:00:42;18.90;99.90
15906;DHT22;8051;50.820;4.884;2023-07-20T08:03:10;18.90;99.90
15906;DHT22;8051;50.820;4.884;2023-07-20T08:05:38;19.10;99.90
15906;DHT22;8051;50.820;4.884;2023-07-20T08:08:05;19.30;99.90
15906;DHT22;8051;50.820;4.884;2023-07-20T08:10:36;19.50;99.90
15906;DHT22;8051;50.820;4.884;2023-07-20T08:13:03;19.60;99.90
15906;DHT22;8051;50.820;4.884;2023-07-20T08:15:30;19.80;99.90
15906;DHT22;8051;50.820;4.884;2023-07-20T08:17:58;19.90;99.90
15906;DHT22;8051;50.820;4.884;2023-07-20T08:20:25;19.80;99.90
15906;DHT22;8051;50.820;4.884;2023-07-20T08:22:54;19.70;99.90
15906;DHT22;8051;50.820;4.884;2023-07-20T08:25:21;19.60;99.90
15906;DHT22;8051;50.820;4.884;2023-07-20T08:27:50;19.70;99.90
15906;DHT22;8051;50.820;4.884;2023-07-20T08:30:21;19.90;99.90
15906;DHT22;8051;50.820;4.884;2023-07-20T08:32:49;20.00;99.90
15906;DHT22;8051;50.820;4.884;2023-07-20T08:35:17;20.10;99.90
15906;DHT22;8051;50.820;4.884;2023-07-20T08:37:44;20.30;99.90
15906;DHT22;8051;50.820;4.884;2023-07-20T08:40:14;20.60;99.90
15906;DHT22;8051;50.820;4.884;2023-07-20T08:42:42;20.60;99.90
15906;DHT22;8051;50.820;4.884;2023-07-20T08:45:13;20.90;99.90
15906;DHT22;8051;50.820;4.884;2023-07-20T08:47:42;20.90;99.90
15906;DHT22;8051;50.820;4.884;2023-07-20T08:50:11;20.80;99.90
15906;DHT22;8051;50.820;4.884;2023-07-20T08:52:39;21.00;99.90
15906;DHT22;8051;50.820;4.884;2023-07-20T08:55:08;21.10;99.90
15906;DHT22;8051;50.820;4.884;2023-07-20T08:57:36;21.20;99.90
15906;DHT22;8051;50.820;4.884;2023-07-20T09:00:07;21.40;99.90
15906;DHT22;8051;50.820;4.884;2023-07-20T09:02:40;21.40;99.90
15906;DHT22;8051;50.820;4.884;2023-07-20T09:05:09;21.50;99.90
15906;DHT22;8051;50.820;4.884;2023-07-20T09:07:38;21.80;99.90
15906;DHT22;8051;50.820;4.884;2023-07-20T09:10:07;21.90;99.90
15906;DHT22;8051;50.820;4.884;2023-07-20T09:12:35;22.20;99.90
15906;DHT22;8051;50.820;4.884;2023-07-20T09:15:04;22.40;99.90
15906;DHT22;8051;50.820;4.884;2023-07-20T09:17:32;22.20;99.90
15906;DHT22;8051;50.820;4.884;2023-07-20T09:20:02;22.30;99.90
15906;DHT22;8051;50.820;4.884;2023-07-20T09:22:33;22.30;99.90
15906;DHT22;8051;50.820;4.884;2023-07-20T09:25:00;21.90;99.90
15906;DHT22;8051;50.820;4.884;2023-07-20T09:27:35;21.70;99.90
15906;DHT22;8051;50.820;4.884;2023-07-20T09:30:04;21.60;99.90
15906;DHT22;8051;50.820;4.884;2023-07-20T09:32:38;21.50;99.90
15906;DHT22;8051;50.820;4.884;2023-07-20T09:35:13;21.50;99.90
15906;DHT22;8051;50.820;4.884;2023-07-20T09:37:46;21.20;99.90
15906;DHT22;8051;50.820;4.884;2023-07-20T09:40:17;21.20;99.90
15906;DHT22;8051;50.820;4.884;2023-07-20T09:42:46;21.30;99.90
15906;DHT22;8051;50.820;4.884;2023-07-20T09:45:14;21.30;99.90
15906;DHT22;8051;50.820;4.884;2023-07-20T09:47:41;21.20;99.90
15906;DHT22;8051;50.820;4.884;2023-07-20T09:50:10;21.20;99.90
15906;DHT22;8051;50.820;4.884;2023-07-20T09:52:38;21.30;99.90
15906;DHT22;8051;50.820;4.884;2023-07-20T09:55:08;21.30;99.90
15906;DHT22;8051;50.820;4.884;2023-07-20T09:57:38;21.50;99.90
15906;DHT22;8051;50.820;4.884;2023-07-20T10:00:07;21.60;99.90
15906;DHT22;8051;50.820;4.884;2023-07-20T10:02:42;21.90;99.90
15906;DHT22;8051;50.820;4.884;2023-07-20T10:05:13;22.30;99.90
15906;DHT22;8051;50.820;4.884;2023-07-20T10:07:44;22.60;99.90
15906;DHT22;8051;50.820;4.884;2023-07-20T10:10:15;22.60;99.90
15906;DHT22;8051;50.820;4.884;2023-07-20T10:12:46;22.80;99.90
15906;DHT22;8051;50.820;4.884;2023-07-20T10:15:19;22.70;99.90
15906;DHT22;8051;50.820;4.884;2023-07-20T10:17:57;22.50;99.90
15906;DHT22;8051;50.820;4.884;2023-07-20T10:20:27;22.20;99.90
15906;DHT22;8051;50.820;4.884;2023-07-20T10:22:56;22.20;99.90
15906;DHT22;8051;50.820;4.884;2023-07-20T10:25:24;22.40;99.90
15906;DHT22;8051;50.820;4.884;2023-07-20T10:27:51;22.50;99.90
15906;DHT22;8051;50.820;4.884;2023-07-20T10:30:19;22.40;99.90
15906;DHT22;8051;50.820;4.884;2023-07-20T10:32:47;22.20;99.90
15906;DHT22;8051;50.820;4.884;2023-07-20T10:35:16;21.90;99.90
15906;DHT22;8051;50.820;4.884;2023-07-20T10:37:53;22.00;99.90
15906;DHT22;8051;50.820;4.884;2023-07-20T10:40:31;22.10;99.90
15906;DHT22;8051;50.820;4.884;2023-07-20T10:42:59;22.30;99.90
15906;DHT22;8051;50.820;4.884;2023-07-20T10:45:39;22.70;99.90
15906;DHT22;8051;50.820;4.884;2023-07-20T10:48:14;23.10;99.90
15906;DHT22;8051;50.820;4.884;2023-07-20T10:50:42;23.30;99.90
15906;DHT22;8051;50.820;4.884;2023-07-20T10:53:15;23.40;99.90
15906;DHT22;8051;50.820;4.884;2023-07-20T10:55:43;23.20;99.90
15906;DHT22;8051;50.820;4.884;2023-07-20T10:58:12;23.00;99.90
15906;DHT22;8051;50.820;4.884;2023-07-20T11:00:59;23.20;99.90
15906;DHT22;8051;50.820;4.884;2023-07-20T11:03:28;23.50;99.90
15906;DHT22;8051;50.820;4.884;2023-07-20T11:05:57;23.80;99.90
15906;DHT22;8051;50.820;4.884;2023-07-20T11:08:42;24.20;99.90
15906;DHT22;8051;50.820;4.884;2023-07-20T11:11:23;24.60;99.90
15906;DHT22;8051;50.820;4.884;2023-07-20T11:13:57;24.70;99.90
15906;DHT22;8051;50.820;4.884;2023-07-20T11:16:49;24.80;99.90
15906;DHT22;8051;50.820;4.884;2023-07-20T11:19:18;24.70;99.90
15906;DHT22;8051;50.820;4.884;2023-07-20T11:21:47;24.80;99.90
15906;DHT22;8051;50.820;4.884;2023-07-20T11:24:18;24.70;99.90
15906;DHT22;8051;50.820;4.884;2023-07-20T11:26:47;24.60;99.90
15906;DHT22;8051;50.820;4.884;2023-07-20T11:29:16;24.40;99.90
15906;DHT22;8051;50.820;4.884;2023-07-20T11:31:45;24.70;99.90
15906;DHT22;8051;50.820;4.884;2023-07-20T11:34:13;24.90;99.90
15906;DHT22;8051;50.820;4.884;2023-07-20T11:36:43;24.50;99.90
15906;DHT22;8051;50.820;4.884;2023-07-20T11:39:12;24.60;99.90
15906;DHT22;8051;50.820;4.884;2023-07-20T11:41:47;24.80;99.90
15906;DHT22;8051;50.820;4.884;2023-07-20T11:44:16;25.00;99.90
15906;DHT22;8051;50.820;4.884;2023-07-20T11:46:44;25.40;99.90
15906;DHT22;8051;50.820;4.884;2023-07-20T11:49:12;25.70;99.90
15906;DHT22;8051;50.820;4.884;2023-07-20T11:51:40;25.70;99.90
15906;DHT22;8051;50.820;4.884;2023-07-20T11:54:09;25.40;99.90
15906;DHT22;8051;50.820;4.884;2023-07-20T11:56:41;25.30;99.90
15906;DHT22;8051;50.820;4.884;2023-07-20T11:59:11;25.40;99.90
15906;DHT22;8051;50.820;4.884;2023-07-20T12:01:39;24.70;99.90
15906;DHT22;8051;50.820;4.884;2023-07-20T12:04:06;24.30;99.90
15906;DHT22;8051;50.820;4.884;2023-07-20T12:06:34;24.30;99.90
15906;DHT22;8051;50.820;4.884;2023-07-20T12:09:01;24.40;99.90
15906;DHT22;8051;50.820;4.884;2023-07-20T12:11:33;24.20;99.90
15906;DHT22;8051;50.820;4.884;2023-07-20T12:14:02;24.40;99.90
15906;DHT22;8051;50.820;4.884;2023-07-20T12:16:31;24.50;99.90
15906;DHT22;8051;50.820;4.884;2023-07-20T12:19:02;24.40;99.90
15906;DHT22;8051;50.820;4.884;2023-07-20T12:21:30;24.30;99.90
15906;DHT22;8051;50.820;4.884;2023-07-20T12:23:58;24.40;99.90
15906;DHT22;8051;50.820;4.884;2023-07-20T12:26:28;24.30;99.90
15906;DHT22;8051;50.820;4.884;2023-07-20T12:28:56;24.10;99.90
15906;DHT22;8051;50.820;4.884;2023-07-20T12:31:24;24.00;99.90
15906;DHT22;8051;50.820;4.884;2023-07-20T12:33:54;24.10;99.90
15906;DHT22;8051;50.820;4.884;2023-07-20T12:36:22;24.30;99.90
15906;DHT22;8051;50.820;4.884;2023-07-20T12:38:50;24.50;99.90
15906;DHT22;8051;50.820;4.884;2023-07-20T12:41:17;24.60;99.90
15906;DHT22;8051;50.820;4.884;2023-07-20T12:43:45;24.60;99.90
15906;DHT22;8051;50.820;4.884;2023-07-20T12:46:13;24.90;99.90
15906;DHT22;8051;50.820;4.884;2023-07-20T12:48:41;25.20;99.90
15906;DHT22;8051;50.820;4.884;2023-07-20T12:51:11;25.30;99.90
15906;DHT22;8051;50.820;4.884;2023-07-20T12:53:38;25.30;99.90
15906;DHT22;8051;50.820;4.884;2023-07-20T12:56:06;25.20;99.90
15906;DHT22;8051;50.820;4.884;2023-07-20T12:58:33;25.20;99.90
15906;DHT22;8051;50.820;4.884;2023-07-20T13:01:02;25.10;99.90
15906;DHT22;8051;50.820;4.884;2023-07-20T13:03:30;25.40;99.90
15906;DHT22;8051;50.820;4.884;2023-07-20T13:05:59;25.10;99.90
15906;DHT22;8051;50.820;4.884;2023-07-20T13:08:28;25.20;99.90
15906;DHT22;8051;50.820;4.884;2023-07-20T13:10:55;25.20;99.90
15906;DHT22;8051;50.820;4.884;2023-07-20T13:13:23;24.80;99.90
15906;DHT22;8051;50.820;4.884;2023-07-20T13:15:50;25.00;99.90
15906;DHT22;8051;50.820;4.884;2023-07-20T13:18:18;25.40;99.90
15906;DHT22;8051;50.820;4.884;2023-07-20T13:20:46;25.40;99.90
15906;DHT22;8051;50.820;4.884;2023-07-20T13:23:13;25.40;99.90
15906;DHT22;8051;50.820;4.884;2023-07-20T13:25:42;25.30;99.90
15906;DHT22;8051;50.820;4.884;2023-07-20T13:28:10;25.10;99.90
15906;DHT22;8051;50.820;4.884;2023-07-20T13:30:37;25.00;99.90
15906;DHT22;8051;50.820;4.884;2023-07-20T13:33:05;25.00;99.90
15906;DHT22;8051;50.820;4.884;2023-07-20T13:35:32;24.90;99.90
15906;DHT22;8051;50.820;4.884;2023-07-20T13:37:59;24.70;99.90
15906;DHT22;8051;50.820;4.884;2023-07-20T13:40:27;24.80;99.90
15906;DHT22;8051;50.820;4.884;2023-07-20T13:42:56;25.10;99.90
15906;DHT22;8051;50.820;4.884;2023-07-20T13:45:23;25.30;99.90
15906;DHT22;8051;50.820;4.884;2023-07-20T13:47:51;25.40;99.90
15906;DHT22;8051;50.820;4.884;2023-07-20T13:50:18;25.30;99.90
15906;DHT22;8051;50.820;4.884;2023-07-20T13:52:47;25.10;99.90
15906;DHT22;8051;50.820;4.884;2023-07-20T13:55:14;25.00;99.90
15906;DHT22;8051;50.820;4.884;2023-07-20T13:57:42;24.80;99.90
15906;DHT22;8051;50.820;4.884;2023-07-20T14:00:12;24.80;99.90
15906;DHT22;8051;50.820;4.884;2023-07-20T14:02:40;25.10;99.90
15906;DHT22;8051;50.820;4.884;2023-07-20T14:05:08;25.20;99.90
15906;DHT22;8051;50.820;4.884;2023-07-20T14:07:36;25.20;99.90
15906;DHT22;8051;50.820;4.884;2023-07-20T14:10:04;25.20;99.90
15906;DHT22;8051;50.820;4.884;2023-07-20T14:12:31;25.30;99.90
15906;DHT22;8051;50.820;4.884;2023-07-20T14:14:59;25.40;99.90
15906;DHT22;8051;50.820;4.884;2023-07-20T14:17:28;25.70;99.90
15906;DHT22;8051;50.820;4.884;2023-07-20T14:19:55;25.70;99.90
15906;DHT22;8051;50.820;4.884;2023-07-20T14:22:23;25.40;99.90
15906;DHT22;8051;50.820;4.884;2023-07-20T14:24:50;25.40;99.90
15906;DHT22;8051;50.820;4.884;2023-07-20T14:27:18;25.50;99.90
15906;DHT22;8051;50.820;4.884;2023-07-20T14:29:45;25.50;99.90
15906;DHT22;8051;50.820;4.884;2023-07-20T14:32:13;25.50;99.90
15906;DHT22;8051;50.820;4.884;2023-07-20T14:34:42;25.50;99.90
15906;DHT22;8051;50.820;4.884;2023-07-20T14:37:09;25.40;99.90
15906;DHT22;8051;50.820;4.884;2023-07-20T14:39:37;25.00;99.90
15906;DHT22;8051;50.820;4.884;2023-07-20T14:42:05;24.70;99.90
15906;DHT22;8051;50.820;4.884;2023-07-20T14:44:33;25.00;99.90
15906;DHT22;8051;50.820;4.884;2023-07-20T14:47:01;25.00;99.90
15906;DHT22;8051;50.820;4.884;2023-07-20T14:49:28;25.10;99.90
15906;DHT22;8051;50.820;4.884;2023-07-20T14:51:57;24.60;99.90
15906;DHT22;8051;50.820;4.884;2023-07-20T14:54:25;24.10;99.90
15906;DHT22;8051;50.820;4.884;2023-07-20T14:56:52;24.00;99.90
15906;DHT22;8051;50.820;4.884;2023-07-20T14:59:20;23.80;99.90
15906;DHT22;8051;50.820;4.884;2023-07-20T15:01:47;23.50;99.90
15906;DHT22;8051;50.820;4.884;2023-07-20T15:04:15;23.60;99.90
15906;DHT22;8051;50.820;4.884;2023-07-20T15:06:42;23.70;99.90
15906;DHT22;8051;50.820;4.884;2023-07-20T15:09:11;23.90;99.90
15906;DHT22;8051;50.820;4.884;2023-07-20T15:11:39;23.80;99.90
15906;DHT22;8051;50.820;4.884;2023-07-20T15:14:06;24.00;99.90
15906;DHT22;8051;50.820;4.884;2023-07-20T15:16:34;23.90;99.90
15906;DHT22;8051;50.820;4.884;2023-07-20T15:19:03;23.80;99.90
15906;DHT22;8051;50.820;4.884;2023-07-20T15:21:30;24.00;99.90
15906;DHT22;8051;50.820;4.884;2023-07-20T15:23:58;24.40;99.90
15906;DHT22;8051;50.820;4.884;2023-07-20T15:26:27;24.90;99.90
15906;DHT22;8051;50.820;4.884;2023-07-20T15:28:55;25.40;99.90
15906;DHT22;8051;50.820;4.884;2023-07-20T15:31:23;25.90;99.90
15906;DHT22;8051;50.820;4.884;2023-07-20T15:33:52;26.20;99.90
15906;DHT22;8051;50.820;4.884;2023-07-20T15:36:19;26.30;99.90
15906;DHT22;8051;50.820;4.884;2023-07-20T15:38:47;26.10;99.90
15906;DHT22;8051;50.820;4.884;2023-07-20T15:41:15;25.70;99.90
15906;DHT22;8051;50.820;4.884;2023-07-20T15:43:43;25.90;99.90
15906;DHT22;8051;50.820;4.884;2023-07-20T15:49:22;26.00;99.90
15906;DHT22;8051;50.820;4.884;2023-07-20T15:51:50;26.60;99.90
15906;DHT22;8051;50.820;4.884;2023-07-20T15:54:17;28.20;99.90
15906;DHT22;8051;50.820;4.884;2023-07-20T15:56:45;30.00;99.90